sensor_id;sensor_type;location;lat;lon;timestamp;temperature;humidity
3770;DHT22;1900;48.890;9.190;2023-12-20T00:00:50;9.20;69.00
3770;DHT22;1900;48.890;9.190;2023-12-20T00:03:16;9.20;68.90
3770;DHT22;1900;48.890;9.190;2023-12-20T00:05:43;9.20;68.90
3770;DHT22;1900;48.890;9.190;2023-12-20T00:08:09;9.30;69.00
3770;DHT22;1900;48.890;9.190;2023-12-20T00:10:35;9.30;69.10
3770;DHT22;1900;48.890;9.190;2023-12-20T00:13:00;9.30;69.20
3770;DHT22;1900;48.890;9.190;2023-12-20T00:15:26;9.30;69.20
3770;DHT22;1900;48.890;9.190;2023-12-20T00:17:52;9.30;69.20
3770;DHT22;1900;48.890;9.190;2023-12-20T00:20:18;9.40;69.30
3770;DHT22;1900;48.890;9.190;2023-12-20T00:22:43;9.40;69.30
3770;DHT22;1900;48.890;9.190;2023-12-20T00:25:09;9.40;69.30
3770;DHT22;1900;48.890;9.190;2023-12-20T00:27:35;9.40;69.30
3770;DHT22;1900;48.890;9.190;2023-12-20T00:30:01;9.40;69.30
3770;DHT22;1900;48.890;9.190;2023-12-20T00:32:26;9.50;69.30
3770;DHT22;1900;48.890;9.190;2023-12-20T00:34:52;9.50;69.40
3770;DHT22;1900;48.890;9.190;2023-12-20T00:37:18;9.50;69.30
3770;DHT22;1900;48.890;9.190;2023-12-20T00:39:44;9.50;69.30
3770;DHT22;1900;48.890;9.190;2023-12-20T00:42:10;9.50;69.30
3770;DHT22;1900;48.890;9.190;2023-12-20T00:44:35;9.50;69.30
3770;DHT22;1900;48.890;9.190;2023-12-20T00:47:01;9.60;69.50
3770;DHT22;1900;48.890;9.190;2023-12-20T00:49:27;9.60;69.40
3770;DHT22;1900;48.890;9.190;2023-12-20T00:51:53;9.60;69.40
3770;DHT22;1900;48.890;9.190;2023-12-20T00:54:18;9.60;69.40
3770;DHT22;1900;48.890;9.190;2023-12-20T00:56:44;9.60;69.40
3770;DHT22;1900;48.890;9.190;2023-12-20T00:59:10;9.60;69.40
3770;DHT22;1900;48.890;9.190;2023-12-20T01:01:36;9.60;69.40
3770;DHT22;1900;48.890;9.190;2023-12-20T01:04:01;9.60;69.40
3770;DHT22;1900;48.890;9.190;2023-12-20T01:06:27;9.60;69.30
3770;DHT22;1900;48.890;9.190;2023-12-20T01:08:53;9.60;69.30
3770;DHT22;1900;48.890;9.190;2023-12-20T01:11:19;9.60;69.40
3770;DHT22;1900;48.890;9.190;2023-12-20T01:13:45;9.60;69.40
3770;DHT22;1900;48.890;9.190;2023-12-20T01:16:11;9.70;69.40
3770;DHT22;1900;48.890;9.190;2023-12-20T01:18:37;9.60;69.40
3770;DHT22;1900;48.890;9.190;2023-12-20T01:21:04;9.60;69.40
3770;DHT22;1900;48.890;9.190;2023-12-20T01:23:31;9.70;69.50
3770;DHT22;1900;48.890;9.190;2023-12-20T01:25:57;9.70;69.50
3770;DHT22;1900;48.890;9.190;2023-12-20T01:28:28;9.70;69.50
3770;DHT22;1900;48.890;9.190;2023-12-20T01:30:54;9.70;69.40
3770;DHT22;1900;48.890;9.190;2023-12-20T01:33:20;9.70;69.40
3770;DHT22;1900;48.890;9.190;2023-12-20T01:35:45;9.70;69.50
3770;DHT22;1900;48.890;9.190;2023-12-20T01:38:11;9.70;69.50
3770;DHT22;1900;48.890;9.190;2023-12-20T01:40:37;9.70;69.50
3770;DHT22;1900;48.890;9.190;2023-12-20T01:43:07;9.70;69.50
3770;DHT22;1900;48.890;9.190;2023-12-20T01:45:34;9.70;69.40
3770;DHT22;1900;48.890;9.190;2023-12-20T01:48:04;9.70;69.50
3770;DHT22;1900;48.890;9.190;2023-12-20T01:50:31;9.70;69.50
3770;DHT22;1900;48.890;9.190;2023-12-20T01:52:59;9.70;69.50
3770;DHT22;1900;48.890;9.190;2023-12-20T01:55:27;9.70;69.50
3770;DHT22;1900;48.890;9.190;2023-12-20T01:57:55;9.70;69.50
3770;DHT22;1900;48.890;9.190;2023-12-20T02:00:23;9.70;69.50
3770;DHT22;1900;48.890;9.190;2023-12-20T02:02:50;9.70;69.50
3770;DHT22;1900;48.890;9.190;2023-12-20T02:05:18;9.70;69.50
3770;DHT22;1900;48.890;9.190;2023-12-20T02:07:44;9.70;69.50
3770;DHT22;1900;48.890;9.190;2023-12-20T02:10:09;9.70;69.50
3770;DHT22;1900;48.890;9.190;2023-12-20T02:12:35;9.70;69.60
3770;DHT22;1900;48.890;9.190;2023-12-20T02:15:01;9.70;69.60
3770;DHT22;1900;48.890;9.190;2023-12-20T02:17:27;9.70;69.60
3770;DHT22;1900;48.890;9.190;2023-12-20T02:19:53;9.70;69.60
3770;DHT22;1900;48.890;9.190;2023-12-20T02:22:19;9.70;69.60
3770;DHT22;1900;48.890;9.190;2023-12-20T02:24:44;9.70;69.60
3770;DHT22;1900;48.890;9.190;2023-12-20T02:27:11;9.70;69.60
3770;DHT22;1900;48.890;9.190;2023-12-20T02:29:37;9.70;69.60
3770;DHT22;1900;48.890;9.190;2023-12-20T02:32:03;9.70;69.70
3770;DHT22;1900;48.890;9.190;2023-12-20T02:34:29;9.70;69.70
3770;DHT22;1900;48.890;9.190;2023-12-20T02:36:55;9.70;69.70
3770;DHT22;1900;48.890;9.190;2023-12-20T02:39:23;9.70;69.80
3770;DHT22;1900;48.890;9.190;2023-12-20T02:41:49;9.70;69.80
3770;DHT22;1900;48.890;9.190;2023-12-20T02:44:15;9.70;69.70
3770;DHT22;1900;48.890;9.190;2023-12-20T02:46:40;9.70;69.70
3770;DHT22;1900;48.890;9.190;2023-12-20T02:49:07;9.70;69.80
3770;DHT22;1900;48.890;9.190;2023-12-20T02:51:33;9.70;69.80
3770;DHT22;1900;48.890;9.190;2023-12-20T02:53:59;9.70;69.70
3770;DHT22;1900;48.890;9.190;2023-12-20T02:56:24;9.60;69.70
3770;DHT22;1900;48.890;9.190;2023-12-20T02:58:50;9.60;69.60
3770;DHT22;1900;48.890;9.190;2023-12-20T03:01:16;9.60;69.60
3770;DHT22;1900;48.890;9.190;2023-12-20T03:03:41;9.60;69.70
3770;DHT22;1900;48.890;9.190;2023-12-20T03:06:07;9.60;69.80
3770;DHT22;1900;48.890;9.190;2023-12-20T03:08:32;9.60;69.80
3770;DHT22;1900;48.890;9.190;2023-12-20T03:10:59;9.60;69.80
3770;DHT22;1900;48.890;9.190;2023-12-20T03:13:25;9.60;69.80
3770;DHT22;1900;48.890;9.190;2023-12-20T03:15:51;9.60;69.80
3770;DHT22;1900;48.890;9.190;2023-12-20T03:18:16;9.60;69.70
3770;DHT22;1900;48.890;9.190;2023-12-20T03:20:43;9.60;69.70
3770;DHT22;1900;48.890;9.190;2023-12-20T03:23:09;9.60;69.60
3770;DHT22;1900;48.890;9.190;2023-12-20T03:25:35;9.60;69.60
3770;DHT22;1900;48.890;9.190;2023-12-20T03:28:00;9.50;69.50
3770;DHT22;1900;48.890;9.190;2023-12-20T03:30:26;9.50;69.50
3770;DHT22;1900;48.890;9.190;2023-12-20T03:32:52;9.50;69.60
3770;DHT22;1900;48.890;9.190;2023-12-20T03:35:18;9.50;69.60
3770;DHT22;1900;48.890;9.190;2023-12-20T03:37:43;9.50;69.60
3770;DHT22;1900;48.890;9.190;2023-12-20T03:40:10;9.50;69.70
3770;DHT22;1900;48.890;9.190;2023-12-20T03:42:35;9.50;69.70
3770;DHT22;1900;48.890;9.190;2023-12-20T03:45:01;9.50;69.70
3770;DHT22;1900;48.890;9.190;2023-12-20T03:47:27;9.50;69.60
3770;DHT22;1900;48.890;9.190;2023-12-20T03:49:53;9.50;69.80
3770;DHT22;1900;48.890;9.190;2023-12-20T03:52:19;9.50;69.60
3770;DHT22;1900;48.890;9.190;2023-12-20T03:54:44;9.40;69.40
3770;DHT22;1900;48.890;9.190;2023-12-20T03:57:10;9.40;69.50
3770;DHT22;1900;48.890;9.190;2023-12-20T03:59:37;9.40;69.60
3770;DHT22;1900;48.890;9.190;2023-12-20T04:02:03;9.40;69.60
3770;DHT22;1900;48.890;9.190;2023-12-20T04:04:29;9.40;69.70
3770;DHT22;1900;48.890;9.190;2023-12-20T04:06:55;9.40;69.60
3770;DHT22;1900;48.890;9.190;2023-12-20T04:09:21;9.40;69.60
3770;DHT22;1900;48.890;9.190;2023-12-20T04:11:46;9.40;69.60
3770;DHT22;1900;48.890;9.190;2023-12-20T04:14:12;9.40;69.60
3770;DHT22;1900;48.890;9.190;2023-12-20T04:16:38;9.40;69.70
3770;DHT22;1900;48.890;9.190;2023-12-20T04:19:05;9.40;69.70
3770;DHT22;1900;48.890;9.190;2023-12-20T04:21:30;9.40;69.70
3770;DHT22;1900;48.890;9.190;2023-12-20T04:23:56;9.40;69.70
3770;DHT22;1900;48.890;9.190;2023-12-20T04:26:22;9.30;69.60
3770;DHT22;1900;48.890;9.190;2023-12-20T04:28:48;9.30;69.50
3770;DHT22;1900;48.890;9.190;2023-12-20T04:31:13;9.30;69.50
3770;DHT22;1900;48.890;9.190;2023-12-20T04:33:39;9.30;69.40
3770;DHT22;1900;48.890;9.190;2023-12-20T04:36:05;9.30;69.60
3770;DHT22;1900;48.890;9.190;2023-12-20T04:38:31;9.30;69.60
3770;DHT22;1900;48.890;9.190;2023-12-20T04:40:57;9.30;69.50
3770;DHT22;1900;48.890;9.190;2023-12-20T04:43:23;9.30;69.50
3770;DHT22;1900;48.890;9.190;2023-12-20T04:45:48;9.20;69.40
3770;DHT22;1900;48.890;9.190;2023-12-20T04:48:14;9.20;69.50
3770;DHT22;1900;48.890;9.190;2023-12-20T04:50:40;9.20;69.60
3770;DHT22;1900;48.890;9.190;2023-12-20T04:53:05;9.20;69.50
3770;DHT22;1900;48.890;9.190;2023-12-20T04:55:31;9.20;69.70
3770;DHT22;1900;48.890;9.190;2023-12-20T04:57:57;9.20;69.70
3770;DHT22;1900;48.890;9.190;2023-12-20T05:00:22;9.20;69.60
3770;DHT22;1900;48.890;9.190;2023-12-20T05:02:51;9.20;69.60
3770;DHT22;1900;48.890;9.190;2023-12-20T05:05:17;9.20;69.70
3770;DHT22;1900;48.890;9.190;2023-12-20T05:07:43;9.20;69.70
3770;DHT22;1900;48.890;9.190;2023-12-20T05:10:10;9.20;69.70
3770;DHT22;1900;48.890;9.190;2023-12-20T05:12:35;9.20;69.80
3770;DHT22;1900;48.890;9.190;2023-12-20T05:15:01;9.20;69.80
3770;DHT22;1900;48.890;9.190;2023-12-20T05:17:27;9.20;69.80
3770;DHT22;1900;48.890;9.190;2023-12-20T05:19:52;9.20;70.00
3770;DHT22;1900;48.890;9.190;2023-12-20T05:22:19;9.20;69.90
3770;DHT22;1900;48.890;9.190;2023-12-20T05:24:45;9.30;70.10
3770;DHT22;1900;48.890;9.190;2023-12-20T05:27:11;9.20;69.90
3770;DHT22;1900;48.890;9.190;2023-12-20T05:29:37;9.30;70.00
3770;DHT22;1900;48.890;9.190;2023-12-20T05:32:03;9.30;70.00
3770;DHT22;1900;48.890;9.190;2023-12-20T05:34:32;9.30;70.00
3770;DHT22;1900;48.890;9.190;2023-12-20T05:36:58;9.30;70.00
3770;DHT22;1900;48.890;9.190;2023-12-20T05:39:23;9.30;70.00
3770;DHT22;1900;48.890;9.190;2023-12-20T05:41:49;9.20;69.90
3770;DHT22;1900;48.890;9.190;2023-12-20T05:44:15;9.30;70.00
3770;DHT22;1900;48.890;9.190;2023-12-20T05:46:41;9.20;69.90
3770;DHT22;1900;48.890;9.190;2023-12-20T05:49:07;9.30;70.00
3770;DHT22;1900;48.890;9.190;2023-12-20T05:51:32;9.20;69.90
3770;DHT22;1900;48.890;9.190;2023-12-20T05:53:58;9.30;70.10
3770;DHT22;1900;48.890;9.190;2023-12-20T05:56:24;9.30;70.10
3770;DHT22;1900;48.890;9.190;2023-12-20T05:58:50;9.20;70.10
3770;DHT22;1900;48.890;9.190;2023-12-20T06:01:16;9.20;70.10
3770;DHT22;1900;48.890;9.190;2023-12-20T06:03:43;9.20;70.10
3770;DHT22;1900;48.890;9.190;2023-12-20T06:06:09;9.30;70.30
3770;DHT22;1900;48.890;9.190;2023-12-20T06:08:36;9.30;70.30
3770;DHT22;1900;48.890;9.190;2023-12-20T06:11:02;9.30;70.30
3770;DHT22;1900;48.890;9.190;2023-12-20T06:13:27;9.30;70.30
3770;DHT22;1900;48.890;9.190;2023-12-20T06:15:56;9.30;70.40
3770;DHT22;1900;48.890;9.190;2023-12-20T06:18:22;9.30;70.30
3770;DHT22;1900;48.890;9.190;2023-12-20T06:20:49;9.30;70.30
3770;DHT22;1900;48.890;9.190;2023-12-20T06:23:15;9.30;70.30
3770;DHT22;1900;48.890;9.190;2023-12-20T06:25:41;9.40;70.40
3770;DHT22;1900;48.890;9.190;2023-12-20T06:28:06;9.30;70.40
3770;DHT22;1900;48.890;9.190;2023-12-20T06:30:32;9.40;70.60
3770;DHT22;1900;48.890;9.190;2023-12-20T06:32:58;9.40;70.60
3770;DHT22;1900;48.890;9.190;2023-12-20T06:35:24;9.40;70.60
3770;DHT22;1900;48.890;9.190;2023-12-20T06:37:50;9.40;70.50
3770;DHT22;1900;48.890;9.190;2023-12-20T06:40:16;9.40;70.50
3770;DHT22;1900;48.890;9.190;2023-12-20T06:42:44;9.40;70.50
3770;DHT22;1900;48.890;9.190;2023-12-20T06:45:10;9.40;70.50
3770;DHT22;1900;48.890;9.190;2023-12-20T06:47:38;9.40;70.40
3770;DHT22;1900;48.890;9.190;2023-12-20T06:50:04;9.40;70.50
3770;DHT22;1900;48.890;9.190;2023-12-20T06:52:30;9.40;70.60
3770;DHT22;1900;48.890;9.190;2023-12-20T06:54:56;9.40;70.60
3770;DHT22;1900;48.890;9.190;2023-12-20T06:57:22;9.40;70.60
3770;DHT22;1900;48.890;9.190;2023-12-20T06:59:48;9.40;70.60
3770;DHT22;1900;48.890;9.190;2023-12-20T07:02:14;9.40;70.50
3770;DHT22;1900;48.890;9.190;2023-12-20T07:04:41;9.40;70.60
3770;DHT22;1900;48.890;9.190;2023-12-20T07:07:07;9.50;70.70
3770;DHT22;1900;48.890;9.190;2023-12-20T07:09:33;9.40;70.50
3770;DHT22;1900;48.890;9.190;2023-12-20T07:11:59;9.50;70.80
3770;DHT22;1900;48.890;9.190;2023-12-20T07:14:25;9.40;70.60
3770;DHT22;1900;48.890;9.190;2023-12-20T07:16:51;9.40;70.60
3770;DHT22;1900;48.890;9.190;2023-12-20T07:19:17;9.40;70.60
3770;DHT22;1900;48.890;9.190;2023-12-20T07:21:43;9.50;70.70
3770;DHT22;1900;48.890;9.190;2023-12-20T07:24:09;9.40;70.60
3770;DHT22;1900;48.890;9.190;2023-12-20T07:26:35;9.40;70.60
3770;DHT22;1900;48.890;9.190;2023-12-20T07:29:03;9.40;70.60
3770;DHT22;1900;48.890;9.190;2023-12-20T07:31:29;9.40;70.60
3770;DHT22;1900;48.890;9.190;2023-12-20T07:33:56;9.40;70.60
3770;DHT22;1900;48.890;9.190;2023-12-20T07:36:22;9.40;70.60
3770;DHT22;1900;48.890;9.190;2023-12-20T07:38:47;9.40;70.60
3770;DHT22;1900;48.890;9.190;2023-12-20T07:41:13;9.40;70.70
3770;DHT22;1900;48.890;9.190;2023-12-20T07:43:41;9.40;70.80
3770;DHT22;1900;48.890;9.190;2023-12-20T07:46:10;9.40;70.80
3770;DHT22;1900;48.890;9.190;2023-12-20T07:48:36;9.40;70.70
3770;DHT22;1900;48.890;9.190;2023-12-20T07:51:03;9.40;70.70
3770;DHT22;1900;48.890;9.190;2023-12-20T07:53:28;9.40;70.70
3770;DHT22;1900;48.890;9.190;2023-12-20T07:55:55;9.40;70.60
3770;DHT22;1900;48.890;9.190;2023-12-20T07:58:21;9.40;70.60
3770;DHT22;1900;48.890;9.190;2023-12-20T08:00:47;9.40;70.60
3770;DHT22;1900;48.890;9.190;2023-12-20T08:03:13;9.40;70.60
3770;DHT22;1900;48.890;9.190;2023-12-20T08:05:39;9.40;70.50
3770;DHT22;1900;48.890;9.190;2023-12-20T08:08:08;9.40;70.40
3770;DHT22;1900;48.890;9.190;2023-12-20T08:10:35;9.40;70.30
3770;DHT22;1900;48.890;9.190;2023-12-20T08:13:00;9.40;70.30
3770;DHT22;1900;48.890;9.190;2023-12-20T08:15:26;9.40;70.30
3770;DHT22;1900;48.890;9.190;2023-12-20T08:17:52;9.40;70.30
3770;DHT22;1900;48.890;9.190;2023-12-20T08:20:18;9.40;70.30
3770;DHT22;1900;48.890;9.190;2023-12-20T08:22:44;9.40;70.20
3770;DHT22;1900;48.890;9.190;2023-12-20T08:25:10;9.30;70.00
3770;DHT22;1900;48.890;9.190;2023-12-20T08:27:42;9.30;70.10
3770;DHT22;1900;48.890;9.190;2023-12-20T08:30:10;9.30;70.20
3770;DHT22;1900;48.890;9.190;2023-12-20T08:32:36;9.30;70.20
3770;DHT22;1900;48.890;9.190;2023-12-20T08:35:02;9.30;70.20
3770;DHT22;1900;48.890;9.190;2023-12-20T08:37:28;9.30;70.10
3770;DHT22;1900;48.890;9.190;2023-12-20T08:39:55;9.30;70.00
3770;DHT22;1900;48.890;9.190;2023-12-20T08:42:21;9.30;70.10
3770;DHT22;1900;48.890;9.190;2023-12-20T08:44:47;9.30;70.10
3770;DHT22;1900;48.890;9.190;2023-12-20T08:47:13;9.30;70.10
3770;DHT22;1900;48.890;9.190;2023-12-20T08:49:41;9.20;70.10
3770;DHT22;1900;48.890;9.190;2023-12-20T08:52:07;9.30;70.20
3770;DHT22;1900;48.890;9.190;2023-12-20T08:54:33;9.20;70.10
3770;DHT22;1900;48.890;9.190;2023-12-20T08:56:58;9.30;70.20
3770;DHT22;1900;48.890;9.190;2023-12-20T08:59:24;9.20;70.10
3770;DHT22;1900;48.890;9.190;2023-12-20T09:01:50;9.30;70.30
3770;DHT22;1900;48.890;9.190;2023-12-20T09:04:20;9.30;70.30
3770;DHT22;1900;48.890;9.190;2023-12-20T09:06:46;9.30;70.30
3770;DHT22;1900;48.890;9.190;2023-12-20T09:09:14;9.20;70.10
3770;DHT22;1900;48.890;9.190;2023-12-20T09:11:41;9.20;70.10
3770;DHT22;1900;48.890;9.190;2023-12-20T09:14:07;9.30;70.10
3770;DHT22;1900;48.890;9.190;2023-12-20T09:16:33;9.30;70.20
3770;DHT22;1900;48.890;9.190;2023-12-20T09:18:59;9.20;70.10
3770;DHT22;1900;48.890;9.190;2023-12-20T09:21:25;9.20;70.10
3770;DHT22;1900;48.890;9.190;2023-12-20T09:23:51;9.20;70.10
3770;DHT22;1900;48.890;9.190;2023-12-20T09:26:17;9.30;70.20
3770;DHT22;1900;48.890;9.190;2023-12-20T09:28:44;9.20;70.20
3770;DHT22;1900;48.890;9.190;2023-12-20T09:31:09;9.30;70.30
3770;DHT22;1900;48.890;9.190;2023-12-20T09:33:35;9.30;70.30
3770;DHT22;1900;48.890;9.190;2023-12-20T09:36:01;9.30;70.30
3770;DHT22;1900;48.890;9.190;2023-12-20T09:38:27;9.30;70.20
3770;DHT22;1900;48.890;9.190;2023-12-20T09:40:55;9.30;70.20
3770;DHT22;1900;48.890;9.190;2023-12-20T09:43:24;9.30;70.20
3770;DHT22;1900;48.890;9.190;2023-12-20T09:45:53;9.30;70.20
3770;DHT22;1900;48.890;9.190;2023-12-20T09:48:19;9.30;70.30
3770;DHT22;1900;48.890;9.190;2023-12-20T09:50:45;9.30;70.30
3770;DHT22;1900;48.890;9.190;2023-12-20T09:53:15;9.30;70.30
3770;DHT22;1900;48.890;9.190;2023-12-20T09:55:42;9.40;70.30
3770;DHT22;1900;48.890;9.190;2023-12-20T09:58:08;9.40;70.30
3770;DHT22;1900;48.890;9.190;2023-12-20T10:00:37;9.30;70.00
3770;DHT22;1900;48.890;9.190;2023-12-20T10:03:03;9.40;70.10
3770;DHT22;1900;48.890;9.190;2023-12-20T10:05:32;9.40;70.10
3770;DHT22;1900;48.890;9.190;2023-12-20T10:07:59;9.40;70.10
3770;DHT22;1900;48.890;9.190;2023-12-20T10:10:26;9.40;70.10
3770;DHT22;1900;48.890;9.190;2023-12-20T10:15:34;9.40;70.10
3770;DHT22;1900;48.890;9.190;2023-12-20T10:18:01;9.40;70.10
3770;DHT22;1900;48.890;9.190;2023-12-20T10:20:27;9.40;70.20
3770;DHT22;1900;48.890;9.190;2023-12-20T10:22:55;9.40;70.20
3770;DHT22;1900;48.890;9.190;2023-12-20T10:25:21;9.40;70.00
3770;DHT22;1900;48.890;9.190;2023-12-20T10:27:47;9.50;70.20
3770;DHT22;1900;48.890;9.190;2023-12-20T10:30:14;9.50;70.20
3770;DHT22;1900;48.890;9.190;2023-12-20T10:32:40;9.50;70.10
3770;DHT22;1900;48.890;9.190;2023-12-20T10:35:07;9.50;70.20
3770;DHT22;1900;48.890;9.190;2023-12-20T10:37:36;9.50;70.20
3770;DHT22;1900;48.890;9.190;2023-12-20T10:40:04;9.50;70.20
3770;DHT22;1900;48.890;9.190;2023-12-20T10:42:32;9.50;70.20
3770;DHT22;1900;48.890;9.190;2023-12-20T10:45:00;9.60;70.30
3770;DHT22;1900;48.890;9.190;2023-12-20T10:47:25;9.60;70.40
3770;DHT22;1900;48.890;9.190;2023-12-20T10:49:55;9.60;70.50
3770;DHT22;1900;48.890;9.190;2023-12-20T10:52:23;9.60;70.50
3770;DHT22;1900;48.890;9.190;2023-12-20T10:54:50;9.70;70.50
3770;DHT22;1900;48.890;9.190;2023-12-20T10:57:18;9.70;70.60
3770;DHT22;1900;48.890;9.190;2023-12-20T10:59:45;9.70;70.70
3770;DHT22;1900;48.890;9.190;2023-12-20T11:02:13;9.80;70.80
3770;DHT22;1900;48.890;9.190;2023-12-20T11:04:55;9.80;70.90
3770;DHT22;1900;48.890;9.190;2023-12-20T11:07:29;9.90;70.90
3770;DHT22;1900;48.890;9.190;2023-12-20T11:12:47;10.00;70.10
3770;DHT22;1900;48.890;9.190;2023-12-20T11:15:15;9.90;70.40
3770;DHT22;1900;48.890;9.190;2023-12-20T11:17:44;10.00;69.40
3770;DHT22;1900;48.890;9.190;2023-12-20T11:20:11;10.00;69.20
3770;DHT22;1900;48.890;9.190;2023-12-20T11:22:38;10.00;69.20
3770;DHT22;1900;48.890;9.190;2023-12-20T11:25:11;10.00;69.20
3770;DHT22;1900;48.890;9.190;2023-12-20T11:27:40;10.00;69.00
3770;DHT22;1900;48.890;9.190;2023-12-20T11:30:07;10.00;68.90
3770;DHT22;1900;48.890;9.190;2023-12-20T11:32:37;10.10;68.80
3770;DHT22;1900;48.890;9.190;2023-12-20T11:37:37;10.00;68.20
3770;DHT22;1900;48.890;9.190;2023-12-20T11:40:06;10.00;68.00
3770;DHT22;1900;48.890;9.190;2023-12-20T11:42:50;10.00;67.90
3770;DHT22;1900;48.890;9.190;2023-12-20T11:45:18;9.90;68.90
3770;DHT22;1900;48.890;9.190;2023-12-20T11:47:49;9.90;69.10
3770;DHT22;1900;48.890;9.190;2023-12-20T11:50:22;9.90;69.20
3770;DHT22;1900;48.890;9.190;2023-12-20T11:52:48;9.90;69.20
3770;DHT22;1900;48.890;9.190;2023-12-20T11:55:15;9.90;69.10
3770;DHT22;1900;48.890;9.190;2023-12-20T11:57:41;9.90;69.10
3770;DHT22;1900;48.890;9.190;2023-12-20T12:00:07;9.90;69.30
3770;DHT22;1900;48.890;9.190;2023-12-20T12:02:40;9.90;69.40
3770;DHT22;1900;48.890;9.190;2023-12-20T12:05:06;9.90;69.40
3770;DHT22;1900;48.890;9.190;2023-12-20T12:07:33;9.90;69.10
3770;DHT22;1900;48.890;9.190;2023-12-20T12:09:59;9.90;69.10
3770;DHT22;1900;48.890;9.190;2023-12-20T12:12:25;9.90;69.30
3770;DHT22;1900;48.890;9.190;2023-12-20T12:14:54;9.90;69.40
3770;DHT22;1900;48.890;9.190;2023-12-20T12:17:22;9.90;69.40
3770;DHT22;1900;48.890;9.190;2023-12-20T12:19:48;9.90;69.40
3770;DHT22;1900;48.890;9.190;2023-12-20T12:22:14;9.90;69.40
3770;DHT22;1900;48.890;9.190;2023-12-20T12:24:43;10.00;68.50
3770;DHT22;1900;48.890;9.190;2023-12-20T12:27:10;9.90;69.60
3770;DHT22;1900;48.890;9.190;2023-12-20T12:29:36;10.00;68.70
3770;DHT22;1900;48.890;9.190;2023-12-20T12:32:07;10.00;68.70
3770;DHT22;1900;48.890;9.190;2023-12-20T12:34:33;10.00;68.80
3770;DHT22;1900;48.890;9.190;2023-12-20T12:37:05;10.10;68.90
3770;DHT22;1900;48.890;9.190;2023-12-20T12:39:31;10.10;68.90
3770;DHT22;1900;48.890;9.190;2023-12-20T12:41:57;10.10;68.80
3770;DHT22;1900;48.890;9.190;2023-12-20T12:44:23;10.10;68.70
3770;DHT22;1900;48.890;9.190;2023-12-20T12:46:52;10.20;68.90
3770;DHT22;1900;48.890;9.190;2023-12-20T12:49:22;10.20;69.00
3770;DHT22;1900;48.890;9.190;2023-12-20T12:51:48;10.20;68.80
3770;DHT22;1900;48.890;9.190;2023-12-20T12:54:14;10.20;68.80
3770;DHT22;1900;48.890;9.190;2023-12-20T12:56:42;10.20;68.80
3770;DHT22;1900;48.890;9.190;2023-12-20T12:59:09;10.30;68.90
3770;DHT22;1900;48.890;9.190;2023-12-20T13:01:34;10.30;68.90
3770;DHT22;1900;48.890;9.190;2023-12-20T13:04:00;10.30;68.90
3770;DHT22;1900;48.890;9.190;2023-12-20T13:06:29;10.30;68.80
3770;DHT22;1900;48.890;9.190;2023-12-20T13:08:55;10.30;68.80
3770;DHT22;1900;48.890;9.190;2023-12-20T13:11:21;10.30;68.90
3770;DHT22;1900;48.890;9.190;2023-12-20T13:13:47;10.30;68.90
3770;DHT22;1900;48.890;9.190;2023-12-20T13:16:13;10.30;68.80
3770;DHT22;1900;48.890;9.190;2023-12-20T13:18:39;10.30;68.90
3770;DHT22;1900;48.890;9.190;2023-12-20T13:21:08;10.40;68.80
3770;DHT22;1900;48.890;9.190;2023-12-20T13:23:34;10.40;68.60
3770;DHT22;1900;48.890;9.190;2023-12-20T13:26:00;10.40;68.60
3770;DHT22;1900;48.890;9.190;2023-12-20T13:28:26;10.40;68.40
3770;DHT22;1900;48.890;9.190;2023-12-20T13:30:52;10.40;68.40
3770;DHT22;1900;48.890;9.190;2023-12-20T13:33:17;10.40;68.40
3770;DHT22;1900;48.890;9.190;2023-12-20T13:35:43;10.30;68.20
3770;DHT22;1900;48.890;9.190;2023-12-20T13:38:09;10.30;68.20
3770;DHT22;1900;48.890;9.190;2023-12-20T13:40:35;10.40;68.10
3770;DHT22;1900;48.890;9.190;2023-12-20T13:43:01;10.30;67.90
3770;DHT22;1900;48.890;9.190;2023-12-20T13:45:28;10.30;67.80
3770;DHT22;1900;48.890;9.190;2023-12-20T13:47:54;10.30;67.70
3770;DHT22;1900;48.890;9.190;2023-12-20T13:50:20;10.30;67.60
3770;DHT22;1900;48.890;9.190;2023-12-20T13:52:47;10.30;67.60
3770;DHT22;1900;48.890;9.190;2023-12-20T13:55:13;10.20;67.60
3770;DHT22;1900;48.890;9.190;2023-12-20T13:57:39;10.20;67.70
3770;DHT22;1900;48.890;9.190;2023-12-20T14:00:07;10.20;68.50
3770;DHT22;1900;48.890;9.190;2023-12-20T14:02:41;10.20;68.00
3770;DHT22;1900;48.890;9.190;2023-12-20T14:05:09;10.20;68.10
3770;DHT22;1900;48.890;9.190;2023-12-20T14:07:36;10.20;68.10
3770;DHT22;1900;48.890;9.190;2023-12-20T14:10:02;10.20;68.10
3770;DHT22;1900;48.890;9.190;2023-12-20T14:12:27;10.20;68.10
3770;DHT22;1900;48.890;9.190;2023-12-20T14:15:15;10.20;68.10
3770;DHT22;1900;48.890;9.190;2023-12-20T14:17:41;10.20;68.10
3770;DHT22;1900;48.890;9.190;2023-12-20T14:20:10;10.20;68.00
3770;DHT22;1900;48.890;9.190;2023-12-20T14:22:38;10.10;67.90
3770;DHT22;1900;48.890;9.190;2023-12-20T14:25:13;10.10;67.70
3770;DHT22;1900;48.890;9.190;2023-12-20T14:27:40;10.10;67.60
3770;DHT22;1900;48.890;9.190;2023-12-20T14:30:09;10.10;67.60
3770;DHT22;1900;48.890;9.190;2023-12-20T14:32:35;10.10;67.60
3770;DHT22;1900;48.890;9.190;2023-12-20T14:35:07;10.00;67.40
3770;DHT22;1900;48.890;9.190;2023-12-20T14:37:35;10.00;67.40
3770;DHT22;1900;48.890;9.190;2023-12-20T14:40:05;10.00;67.40
3770;DHT22;1900;48.890;9.190;2023-12-20T14:42:31;9.90;68.30
3770;DHT22;1900;48.890;9.190;2023-12-20T14:44:57;9.90;68.30
3770;DHT22;1900;48.890;9.190;2023-12-20T14:47:23;9.90;68.40
3770;DHT22;1900;48.890;9.190;2023-12-20T14:49:50;9.90;68.40
3770;DHT22;1900;48.890;9.190;2023-12-20T14:52:18;9.90;68.40
3770;DHT22;1900;48.890;9.190;2023-12-20T14:54:44;9.80;68.40
3770;DHT22;1900;48.890;9.190;2023-12-20T14:57:10;9.80;68.50
3770;DHT22;1900;48.890;9.190;2023-12-20T14:59:36;9.80;68.60
3770;DHT22;1900;48.890;9.190;2023-12-20T15:02:02;9.80;68.70
3770;DHT22;1900;48.890;9.190;2023-12-20T15:04:33;9.80;68.70
3770;DHT22;1900;48.890;9.190;2023-12-20T15:07:21;9.80;68.80
3770;DHT22;1900;48.890;9.190;2023-12-20T15:09:47;9.80;68.80
3770;DHT22;1900;48.890;9.190;2023-12-20T15:12:13;9.80;68.80
3770;DHT22;1900;48.890;9.190;2023-12-20T15:14:39;9.70;68.70
3770;DHT22;1900;48.890;9.190;2023-12-20T15:17:05;9.70;68.70
3770;DHT22;1900;48.890;9.190;2023-12-20T15:19:31;9.80;68.90
3770;DHT22;1900;48.890;9.190;2023-12-20T15:21:57;9.70;68.80
3770;DHT22;1900;48.890;9.190;2023-12-20T15:24:24;9.80;69.00
3770;DHT22;1900;48.890;9.190;2023-12-20T15:27:04;9.70;68.90
3770;DHT22;1900;48.890;9.190;2023-12-20T15:29:30;9.70;68.70
3770;DHT22;1900;48.890;9.190;2023-12-20T15:31:56;9.70;68.70
3770;DHT22;1900;48.890;9.190;2023-12-20T15:34:23;9.70;68.80
3770;DHT22;1900;48.890;9.190;2023-12-20T15:36:49;9.70;69.50
3770;DHT22;1900;48.890;9.190;2023-12-20T15:39:15;9.70;68.80
3770;DHT22;1900;48.890;9.190;2023-12-20T15:41:42;9.70;68.80
3770;DHT22;1900;48.890;9.190;2023-12-20T15:44:08;9.70;68.80
3770;DHT22;1900;48.890;9.190;2023-12-20T15:46:38;9.70;68.80
3770;DHT22;1900;48.890;9.190;2023-12-20T15:49:38;9.70;68.70
3770;DHT22;1900;48.890;9.190;2023-12-20T15:52:04;9.70;68.80
3770;DHT22;1900;48.890;9.190;2023-12-20T15:54:30;9.70;68.90
3770;DHT22;1900;48.890;9.190;2023-12-20T15:56:56;9.70;68.90
3770;DHT22;1900;48.890;9.190;2023-12-20T15:59:21;9.70;68.90
3770;DHT22;1900;48.890;9.190;2023-12-20T16:01:47;9.70;69.00
3770;DHT22;1900;48.890;9.190;2023-12-20T16:04:13;9.70;68.90
3770;DHT22;1900;48.890;9.190;2023-12-20T16:06:39;9.70;68.90
3770;DHT22;1900;48.890;9.190;2023-12-20T16:09:05;9.70;68.90
3770;DHT22;1900;48.890;9.190;2023-12-20T16:11:32;9.70;68.80
3770;DHT22;1900;48.890;9.190;2023-12-20T16:13:58;9.70;68.80
3770;DHT22;1900;48.890;9.190;2023-12-20T16:16:23;9.70;68.80
3770;DHT22;1900;48.890;9.190;2023-12-20T16:18:49;9.70;68.80